This is the latest recevied weather packets stored in our database for station/object KB4JHU-15. If no packets are shown the sender has not sent any weather packets the latest 10 day(s).
| Time | Temp. | Humidity | Pressure | Rain* | Wind** | Luminosity | Snow |
|---|---|---|---|---|---|---|---|
| 1777926964 | 25° C | 44% | - | 0 mm | - | - | - |
| 1777925163 | 25° C | 43% | - | 0 mm | - | - | - |
| 1777923362 | 25° C | 45% | - | 0 mm | - | - | - |
| 1777921561 | 25° C | 48% | - | 0 mm | - | - | - |
| 1777919760 | 23.89° C | 49% | - | 0 mm | - | - | - |
| 1777917959 | 23.89° C | 48% | - | 0 mm | - | - | - |
| 1777916158 | 23.89° C | 48% | - | 0 mm | - | - | - |
| 1777914357 | 22.78° C | 49% | - | 0 mm | - | - | - |
| 1777912556 | 22.78° C | 50% | - | 0 mm | - | - | - |
| 1777910755 | 21.67° C | 55% | - | 0 mm | - | - | - |
| 1777908954 | 21.11° C | 54% | - | 0 mm | - | - | - |
| 1777907153 | 20° C | 51% | - | 0 mm | - | - | - |
| 1777905352 | 20° C | 57% | - | 0 mm | - | - | - |
| 1777903551 | 18.33° C | 60% | - | 0 mm | - | - | - |
| 1777901750 | 16.67° C | 61% | - | 0 mm | - | - | - |
| 1777899949 | 15.56° C | 65% | - | 0 mm | - | - | - |
| 1777898148 | 13.89° C | 77% | - | 0 mm | - | - | - |
| 1777896347 | 11.11° C | 86% | - | 0 mm | - | - | - |
| 1777894546 | 8.89° C | 90% | - | 0 mm | - | - | - |
| 1777892745 | 8.33° C | 91% | - | 0 mm | - | - | - |
| 1777890944 | 8.33° C | 91% | - | 0 mm | - | - | - |
| 1777889143 | 8.33° C | 90% | - | 0 mm | - | - | - |
| 1777887342 | 8.33° C | 90% | - | 0 mm | - | - | - |
| 1777885541 | 8.33° C | 89% | - | 0 mm | - | - | - |
| 1777883740 | 9.44° C | 86% | - | 0 mm | - | - | - |
* Rain latest hour (hover to see other rain measurements)
** Current wind speed in m/s (hover to see current wind gust speed)